createdAt,value
2023-05-04T00:03:56.201Z,100961.25
2023-05-04T00:14:00.303Z,100947.91
2023-05-04T00:24:06.400Z,100947.13
2023-05-04T00:34:10.125Z,100944.94
2023-05-04T00:44:15.196Z,100933.81
2023-05-04T00:54:18.860Z,100923.16
2023-05-04T01:04:23.858Z,100911.22
2023-05-04T01:14:28.720Z,100918.25
2023-05-04T01:24:34.229Z,100912.31
2023-05-04T01:34:38.908Z,100913.66
2023-05-04T01:44:43.897Z,100914.66
2023-05-04T01:54:47.473Z,100909.47
2023-05-04T02:04:52.460Z,100907.63
2023-05-04T02:14:56.107Z,100914.16
2023-05-04T02:25:01.083Z,100910.09
2023-05-04T02:35:04.951Z,100910.88
2023-05-04T02:45:11.380Z,100901.91
2023-05-04T02:55:15.240Z,100911.94
2023-05-04T03:05:20.490Z,100905.16
2023-05-04T03:15:24.167Z,100905.78
2023-05-04T03:25:29.318Z,100884.78
2023-05-04T03:35:32.972Z,100891.91
2023-05-04T03:45:38.336Z,100889.22
2023-05-04T03:55:41.881Z,100882.44
2023-05-04T04:05:46.997Z,100884.22
2023-05-04T04:15:50.667Z,100880.09
2023-05-04T04:25:55.659Z,100879.19
2023-05-04T04:35:59.436Z,100880.75
2023-05-04T04:46:05.019Z,100888.38
2023-05-04T04:56:09.658Z,100899.91
2023-05-04T05:06:15.081Z,100895.56
2023-05-04T05:16:19.043Z,100891.28
2023-05-04T05:26:24.748Z,100913.81
2023-05-04T05:36:28.579Z,100910.25
2023-05-04T05:46:33.778Z,100904.59
2023-05-04T05:56:37.701Z,100912.06
2023-05-04T06:06:45.119Z,100906.69
2023-05-04T06:16:49.670Z,100895.44
2023-05-04T06:26:55.113Z,100891.28
2023-05-04T06:36:58.948Z,100881.31
2023-05-04T06:47:03.984Z,100891.63
2023-05-04T06:57:07.666Z,100893.06
2023-05-04T07:07:12.602Z,100881.31
2023-05-04T07:17:16.214Z,100906.69
2023-05-04T07:27:21.247Z,100870.47
2023-05-04T07:37:25.044Z,100856.81
2023-05-04T07:47:29.970Z,100847.38
2023-05-04T07:57:35.639Z,100841.31
2023-05-04T08:07:40.787Z,100834.75
2023-05-04T08:17:44.435Z,100812.50
2023-05-04T08:27:49.567Z,100797.41
2023-05-04T08:37:53.291Z,100787.44
2023-05-04T08:47:58.279Z,100775.88
2023-05-04T08:58:07.087Z,100765.25
2023-05-04T09:08:12.300Z,100758.72
2023-05-04T09:18:16.137Z,100745.34
2023-05-04T09:28:22.768Z,100734.66
2023-05-04T09:38:27.397Z,100729.47
2023-05-04T09:48:32.589Z,100730.31
2023-05-04T09:58:36.860Z,100714.03
2023-05-04T10:08:42.045Z,100691.19
2023-05-04T10:19:12.620Z,100686.72
2023-05-04T10:29:23.843Z,100666.22
2023-05-04T10:39:30.323Z,100649.00
2023-05-04T10:49:36.433Z,100637.78
2023-05-04T10:59:41.276Z,100613.25
2023-05-04T11:09:46.612Z,100592.88
2023-05-04T11:19:51.389Z,100573.44
2023-05-04T11:29:59.274Z,100552.94
2023-05-04T11:40:03.874Z,100535.06
2023-05-04T11:50:12.750Z,100521.38
2023-05-04T12:00:17.708Z,100506.75
2023-05-04T12:10:28.738Z,100506.78
2023-05-04T12:20:33.435Z,100504.22
2023-05-04T12:30:38.908Z,100486.22
2023-05-04T12:40:45.619Z,100474.16
2023-05-04T12:50:52.251Z,100464.69
2023-05-04T13:00:57.796Z,100462.97
2023-05-04T13:11:03.127Z,100436.22
2023-05-04T13:21:07.105Z,100419.81
2023-05-04T13:31:15.095Z,100400.06
2023-05-04T13:41:19.477Z,100391.41
2023-05-04T13:51:24.562Z,100370.03
2023-05-04T14:01:28.391Z,100370.03
2023-05-04T14:11:33.558Z,100349.16
2023-05-04T14:21:37.557Z,100328.22
2023-05-04T14:31:42.598Z,100311.09
2023-05-04T14:41:46.323Z,100299.47
2023-05-04T14:51:51.476Z,100289.13
2023-05-04T15:01:57.435Z,100282.44
2023-05-04T15:12:03.442Z,100255.28
2023-05-04T15:22:07.432Z,100245.03
2023-05-04T15:32:12.410Z,100257.03
2023-05-04T15:42:17.271Z,100248.31
2023-05-04T15:52:22.225Z,100251.03
2023-05-04T16:02:27.773Z,100240.75
2023-05-04T16:12:32.833Z,100226.59
2023-05-04T16:22:36.540Z,100213.59
2023-05-04T16:32:41.786Z,100192.00
2023-05-04T16:42:46.299Z,100190.06
2023-05-04T16:52:51.307Z,100167.19
2023-05-04T17:02:55.383Z,100191.72
2023-05-04T17:13:02.272Z,100180.84
2023-05-04T17:23:06.358Z,100168.25
2023-05-04T17:33:11.661Z,100162.63
2023-05-04T17:43:15.335Z,100168.84
2023-05-04T17:53:20.798Z,100157.84
2023-05-04T18:03:24.638Z,100173.94
2023-05-04T18:13:29.810Z,100210.34
2023-05-04T18:23:33.434Z,100225.19
2023-05-04T18:33:39.009Z,100230.50
2023-05-04T18:43:42.695Z,100230.38
2023-05-04T18:53:48.604Z,100234.56
2023-05-04T19:03:52.376Z,100275.25
2023-05-04T19:13:59.014Z,100274.47
2023-05-04T19:24:06.869Z,100286.59
2023-05-04T19:34:12.581Z,100306.31
2023-05-04T19:44:16.340Z,100301.16
2023-05-04T19:54:21.787Z,100300.75
2023-05-04T20:04:25.527Z,100307.94
2023-05-04T20:14:31.354Z,100310.56
2023-05-04T20:24:35.789Z,100307.50
2023-05-04T20:34:42.991Z,100301.94
2023-05-04T20:44:46.791Z,100304.16
2023-05-04T20:54:52.000Z,100314.81
2023-05-04T21:04:55.737Z,100307.63
2023-05-04T21:15:00.888Z,100295.00
2023-05-04T21:25:05.314Z,100291.09
2023-05-04T21:35:13.294Z,100284.50
2023-05-04T21:45:17.027Z,100284.78
2023-05-04T21:55:22.276Z,100310.03
2023-05-04T22:05:26.246Z,100302.53
2023-05-04T22:15:42.110Z,100297.13
2023-05-04T22:25:53.334Z,100294.22
2023-05-04T22:35:58.826Z,100283.19
2023-05-04T22:46:02.623Z,100287.06
2023-05-04T22:56:08.868Z,100289.91
2023-05-04T23:06:12.514Z,100294.09
2023-05-04T23:16:18.048Z,100300.28
2023-05-04T23:26:21.755Z,100299.47
2023-05-04T23:36:27.618Z,100293.97
2023-05-04T23:46:31.372Z,100283.91
2023-05-04T23:56:36.366Z,100279.34
